sensor_id;sensor_type;location;lat;lon;timestamp;P1;durP1;ratioP1;P2;durP2;ratioP2
72557;SDS011;60583;50.094;8.748;2023-11-19T00:01:00;10.23;;;5.07;;
72557;SDS011;60583;50.094;8.748;2023-11-19T00:03:26;7.68;;;4.60;;
72557;SDS011;60583;50.094;8.748;2023-11-19T00:05:51;7.85;;;4.57;;
72557;SDS011;60583;50.094;8.748;2023-11-19T00:08:17;9.18;;;4.85;;
72557;SDS011;60583;50.094;8.748;2023-11-19T00:10:43;10.27;;;4.82;;
72557;SDS011;60583;50.094;8.748;2023-11-19T00:13:08;8.60;;;4.65;;
72557;SDS011;60583;50.094;8.748;2023-11-19T00:15:35;7.70;;;4.45;;
72557;SDS011;60583;50.094;8.748;2023-11-19T00:18:00;7.53;;;4.43;;
72557;SDS011;60583;50.094;8.748;2023-11-19T00:20:30;9.48;;;4.97;;
72557;SDS011;60583;50.094;8.748;2023-11-19T00:22:55;8.32;;;4.68;;
72557;SDS011;60583;50.094;8.748;2023-11-19T00:25:21;8.80;;;5.00;;
72557;SDS011;60583;50.094;8.748;2023-11-19T00:27:46;11.05;;;5.10;;
72557;SDS011;60583;50.094;8.748;2023-11-19T00:30:12;9.00;;;4.88;;
72557;SDS011;60583;50.094;8.748;2023-11-19T00:32:39;8.25;;;4.93;;
72557;SDS011;60583;50.094;8.748;2023-11-19T00:35:05;8.75;;;4.85;;
72557;SDS011;60583;50.094;8.748;2023-11-19T00:37:32;7.90;;;4.80;;
72557;SDS011;60583;50.094;8.748;2023-11-19T00:39:58;9.15;;;5.03;;
72557;SDS011;60583;50.094;8.748;2023-11-19T00:42:23;9.32;;;5.40;;
72557;SDS011;60583;50.094;8.748;2023-11-19T00:44:49;9.82;;;5.38;;
72557;SDS011;60583;50.094;8.748;2023-11-19T00:47:15;7.72;;;4.80;;
72557;SDS011;60583;50.094;8.748;2023-11-19T00:49:41;9.77;;;5.32;;
72557;SDS011;60583;50.094;8.748;2023-11-19T00:52:07;8.88;;;5.00;;
72557;SDS011;60583;50.094;8.748;2023-11-19T00:54:33;7.63;;;4.57;;
72557;SDS011;60583;50.094;8.748;2023-11-19T00:56:58;7.97;;;4.93;;
72557;SDS011;60583;50.094;8.748;2023-11-19T00:59:24;9.52;;;5.03;;
72557;SDS011;60583;50.094;8.748;2023-11-19T01:01:49;10.00;;;5.07;;
72557;SDS011;60583;50.094;8.748;2023-11-19T01:04:16;8.45;;;4.93;;
72557;SDS011;60583;50.094;8.748;2023-11-19T01:06:41;7.47;;;4.90;;
72557;SDS011;60583;50.094;8.748;2023-11-19T01:09:07;8.57;;;5.00;;
72557;SDS011;60583;50.094;8.748;2023-11-19T01:11:34;8.05;;;4.82;;
72557;SDS011;60583;50.094;8.748;2023-11-19T01:13:59;8.70;;;5.30;;
72557;SDS011;60583;50.094;8.748;2023-11-19T01:16:25;8.45;;;4.68;;
72557;SDS011;60583;50.094;8.748;2023-11-19T01:18:51;7.88;;;4.18;;
72557;SDS011;60583;50.094;8.748;2023-11-19T01:21:17;9.75;;;4.30;;
72557;SDS011;60583;50.094;8.748;2023-11-19T01:23:43;7.90;;;4.53;;
72557;SDS011;60583;50.094;8.748;2023-11-19T01:26:09;9.80;;;4.65;;
72557;SDS011;60583;50.094;8.748;2023-11-19T01:28:38;8.32;;;4.75;;
72557;SDS011;60583;50.094;8.748;2023-11-19T01:31:12;9.02;;;4.90;;
72557;SDS011;60583;50.094;8.748;2023-11-19T01:36:06;10.20;;;5.10;;
72557;SDS011;60583;50.094;8.748;2023-11-19T01:38:33;7.65;;;4.30;;
72557;SDS011;60583;50.094;8.748;2023-11-19T01:40:59;8.23;;;4.57;;
72557;SDS011;60583;50.094;8.748;2023-11-19T01:45:58;7.22;;;4.00;;
72557;SDS011;60583;50.094;8.748;2023-11-19T01:48:23;6.22;;;3.67;;
72557;SDS011;60583;50.094;8.748;2023-11-19T01:50:49;7.68;;;4.32;;
72557;SDS011;60583;50.094;8.748;2023-11-19T01:53:15;6.88;;;4.18;;
72557;SDS011;60583;50.094;8.748;2023-11-19T01:55:41;6.30;;;3.58;;
72557;SDS011;60583;50.094;8.748;2023-11-19T01:58:07;6.60;;;3.97;;
72557;SDS011;60583;50.094;8.748;2023-11-19T02:00:32;7.28;;;3.90;;
72557;SDS011;60583;50.094;8.748;2023-11-19T02:02:58;7.22;;;4.00;;
72557;SDS011;60583;50.094;8.748;2023-11-19T02:05:24;7.30;;;4.15;;
72557;SDS011;60583;50.094;8.748;2023-11-19T02:07:50;6.53;;;3.85;;
72557;SDS011;60583;50.094;8.748;2023-11-19T02:10:16;6.28;;;3.40;;
72557;SDS011;60583;50.094;8.748;2023-11-19T02:12:44;6.43;;;3.50;;
72557;SDS011;60583;50.094;8.748;2023-11-19T02:15:10;7.28;;;3.28;;
72557;SDS011;60583;50.094;8.748;2023-11-19T02:17:36;6.30;;;3.65;;
72557;SDS011;60583;50.094;8.748;2023-11-19T02:20:07;6.28;;;3.05;;
72557;SDS011;60583;50.094;8.748;2023-11-19T02:22:34;5.97;;;3.42;;
72557;SDS011;60583;50.094;8.748;2023-11-19T02:25:00;5.72;;;3.33;;
72557;SDS011;60583;50.094;8.748;2023-11-19T02:30:08;6.03;;;3.20;;
72557;SDS011;60583;50.094;8.748;2023-11-19T02:32:34;5.30;;;2.95;;
72557;SDS011;60583;50.094;8.748;2023-11-19T02:35:01;6.03;;;3.15;;
72557;SDS011;60583;50.094;8.748;2023-11-19T02:37:26;5.18;;;3.08;;
72557;SDS011;60583;50.094;8.748;2023-11-19T02:39:53;7.03;;;3.28;;
72557;SDS011;60583;50.094;8.748;2023-11-19T02:42:19;6.40;;;3.17;;
72557;SDS011;60583;50.094;8.748;2023-11-19T02:44:44;5.35;;;3.05;;
72557;SDS011;60583;50.094;8.748;2023-11-19T02:47:11;4.97;;;2.80;;
72557;SDS011;60583;50.094;8.748;2023-11-19T02:49:36;5.45;;;3.03;;
72557;SDS011;60583;50.094;8.748;2023-11-19T02:52:02;5.13;;;2.97;;
72557;SDS011;60583;50.094;8.748;2023-11-19T02:54:30;4.60;;;2.28;;
72557;SDS011;60583;50.094;8.748;2023-11-19T02:57:00;4.43;;;2.47;;
72557;SDS011;60583;50.094;8.748;2023-11-19T02:59:27;4.07;;;2.20;;
72557;SDS011;60583;50.094;8.748;2023-11-19T03:01:53;4.47;;;2.40;;
72557;SDS011;60583;50.094;8.748;2023-11-19T03:04:20;4.50;;;2.58;;
72557;SDS011;60583;50.094;8.748;2023-11-19T03:06:45;4.72;;;2.33;;
72557;SDS011;60583;50.094;8.748;2023-11-19T03:09:12;5.55;;;2.15;;
72557;SDS011;60583;50.094;8.748;2023-11-19T03:11:37;4.60;;;2.20;;
72557;SDS011;60583;50.094;8.748;2023-11-19T03:14:03;4.18;;;2.13;;
72557;SDS011;60583;50.094;8.748;2023-11-19T03:16:28;4.97;;;2.20;;
72557;SDS011;60583;50.094;8.748;2023-11-19T03:18:54;5.95;;;2.72;;
72557;SDS011;60583;50.094;8.748;2023-11-19T03:21:26;4.78;;;2.38;;
72557;SDS011;60583;50.094;8.748;2023-11-19T03:23:53;5.25;;;2.00;;
72557;SDS011;60583;50.094;8.748;2023-11-19T03:26:18;4.40;;;2.20;;
72557;SDS011;60583;50.094;8.748;2023-11-19T03:28:44;4.10;;;2.35;;
72557;SDS011;60583;50.094;8.748;2023-11-19T03:31:09;4.03;;;2.10;;
72557;SDS011;60583;50.094;8.748;2023-11-19T03:33:34;4.35;;;2.08;;
72557;SDS011;60583;50.094;8.748;2023-11-19T03:36:00;4.22;;;2.15;;
72557;SDS011;60583;50.094;8.748;2023-11-19T03:38:25;4.30;;;2.60;;
72557;SDS011;60583;50.094;8.748;2023-11-19T03:40:50;4.50;;;2.22;;
72557;SDS011;60583;50.094;8.748;2023-11-19T03:43:16;6.07;;;3.28;;
72557;SDS011;60583;50.094;8.748;2023-11-19T03:45:42;4.95;;;2.70;;
72557;SDS011;60583;50.094;8.748;2023-11-19T03:48:07;3.83;;;2.20;;
72557;SDS011;60583;50.094;8.748;2023-11-19T03:50:32;3.85;;;2.38;;
72557;SDS011;60583;50.094;8.748;2023-11-19T03:52:58;4.63;;;2.50;;
72557;SDS011;60583;50.094;8.748;2023-11-19T03:55:24;4.25;;;2.88;;
72557;SDS011;60583;50.094;8.748;2023-11-19T03:57:49;4.47;;;2.50;;
72557;SDS011;60583;50.094;8.748;2023-11-19T04:00:15;4.68;;;2.70;;
72557;SDS011;60583;50.094;8.748;2023-11-19T04:02:41;4.95;;;2.65;;
72557;SDS011;60583;50.094;8.748;2023-11-19T04:05:07;4.20;;;2.70;;
72557;SDS011;60583;50.094;8.748;2023-11-19T04:07:32;4.30;;;2.72;;
72557;SDS011;60583;50.094;8.748;2023-11-19T04:09:58;4.95;;;2.70;;
72557;SDS011;60583;50.094;8.748;2023-11-19T04:12:24;4.13;;;2.63;;
72557;SDS011;60583;50.094;8.748;2023-11-19T04:14:49;4.28;;;2.42;;
72557;SDS011;60583;50.094;8.748;2023-11-19T04:17:15;4.50;;;2.30;;
72557;SDS011;60583;50.094;8.748;2023-11-19T04:19:41;4.68;;;2.40;;
72557;SDS011;60583;50.094;8.748;2023-11-19T04:22:07;4.05;;;2.63;;
72557;SDS011;60583;50.094;8.748;2023-11-19T04:24:34;5.05;;;2.60;;
72557;SDS011;60583;50.094;8.748;2023-11-19T04:27:00;5.00;;;2.30;;
72557;SDS011;60583;50.094;8.748;2023-11-19T04:29:25;5.47;;;2.65;;
72557;SDS011;60583;50.094;8.748;2023-11-19T04:31:50;4.57;;;2.50;;
72557;SDS011;60583;50.094;8.748;2023-11-19T04:34:16;4.85;;;2.63;;
72557;SDS011;60583;50.094;8.748;2023-11-19T04:36:41;3.78;;;2.22;;
72557;SDS011;60583;50.094;8.748;2023-11-19T04:39:07;3.95;;;2.17;;
72557;SDS011;60583;50.094;8.748;2023-11-19T04:41:46;4.10;;;2.22;;
72557;SDS011;60583;50.094;8.748;2023-11-19T04:44:16;4.00;;;1.90;;
72557;SDS011;60583;50.094;8.748;2023-11-19T04:46:42;5.03;;;2.13;;
72557;SDS011;60583;50.094;8.748;2023-11-19T04:49:09;5.43;;;2.30;;
72557;SDS011;60583;50.094;8.748;2023-11-19T04:51:42;4.88;;;2.35;;
72557;SDS011;60583;50.094;8.748;2023-11-19T04:56:37;5.10;;;2.42;;
72557;SDS011;60583;50.094;8.748;2023-11-19T04:59:03;4.80;;;2.70;;
72557;SDS011;60583;50.094;8.748;2023-11-19T05:01:30;6.50;;;2.90;;
72557;SDS011;60583;50.094;8.748;2023-11-19T05:03:59;4.45;;;2.67;;
72557;SDS011;60583;50.094;8.748;2023-11-19T05:06:26;4.65;;;2.83;;
72557;SDS011;60583;50.094;8.748;2023-11-19T05:08:55;4.45;;;2.67;;
72557;SDS011;60583;50.094;8.748;2023-11-19T05:11:21;5.10;;;2.75;;
72557;SDS011;60583;50.094;8.748;2023-11-19T05:13:47;4.70;;;2.60;;
72557;SDS011;60583;50.094;8.748;2023-11-19T05:16:13;5.15;;;2.70;;
72557;SDS011;60583;50.094;8.748;2023-11-19T05:18:42;5.28;;;2.92;;
72557;SDS011;60583;50.094;8.748;2023-11-19T05:21:08;5.28;;;2.50;;
72557;SDS011;60583;50.094;8.748;2023-11-19T05:23:33;4.43;;;2.42;;
72557;SDS011;60583;50.094;8.748;2023-11-19T05:26:02;5.05;;;2.50;;
72557;SDS011;60583;50.094;8.748;2023-11-19T05:28:27;5.10;;;2.50;;
72557;SDS011;60583;50.094;8.748;2023-11-19T05:30:53;4.18;;;2.50;;
72557;SDS011;60583;50.094;8.748;2023-11-19T05:33:18;4.35;;;2.22;;
72557;SDS011;60583;50.094;8.748;2023-11-19T05:35:44;5.18;;;2.55;;
72557;SDS011;60583;50.094;8.748;2023-11-19T05:38:09;4.28;;;2.65;;
72557;SDS011;60583;50.094;8.748;2023-11-19T05:40:35;5.82;;;2.92;;
72557;SDS011;60583;50.094;8.748;2023-11-19T05:43:00;6.15;;;2.97;;
72557;SDS011;60583;50.094;8.748;2023-11-19T05:45:26;4.97;;;3.10;;
72557;SDS011;60583;50.094;8.748;2023-11-19T05:47:51;5.18;;;3.05;;
72557;SDS011;60583;50.094;8.748;2023-11-19T05:50:17;4.75;;;2.80;;
72557;SDS011;60583;50.094;8.748;2023-11-19T05:52:43;6.22;;;3.13;;
72557;SDS011;60583;50.094;8.748;2023-11-19T05:55:09;5.70;;;3.80;;
72557;SDS011;60583;50.094;8.748;2023-11-19T05:57:36;7.10;;;3.70;;
72557;SDS011;60583;50.094;8.748;2023-11-19T06:00:02;5.75;;;3.45;;
72557;SDS011;60583;50.094;8.748;2023-11-19T06:02:28;7.00;;;3.85;;
72557;SDS011;60583;50.094;8.748;2023-11-19T06:04:54;7.00;;;3.63;;
72557;SDS011;60583;50.094;8.748;2023-11-19T06:07:19;7.38;;;3.63;;
72557;SDS011;60583;50.094;8.748;2023-11-19T06:09:45;7.22;;;3.90;;
72557;SDS011;60583;50.094;8.748;2023-11-19T06:12:10;6.72;;;3.75;;
72557;SDS011;60583;50.094;8.748;2023-11-19T06:14:36;5.97;;;3.55;;
72557;SDS011;60583;50.094;8.748;2023-11-19T06:17:01;7.10;;;3.78;;
72557;SDS011;60583;50.094;8.748;2023-11-19T06:19:26;6.95;;;3.92;;
72557;SDS011;60583;50.094;8.748;2023-11-19T06:21:52;6.00;;;3.55;;
72557;SDS011;60583;50.094;8.748;2023-11-19T06:24:17;6.28;;;3.42;;
72557;SDS011;60583;50.094;8.748;2023-11-19T06:26:43;6.88;;;3.72;;
72557;SDS011;60583;50.094;8.748;2023-11-19T06:29:08;5.80;;;3.50;;
72557;SDS011;60583;50.094;8.748;2023-11-19T06:31:34;9.07;;;3.80;;
72557;SDS011;60583;50.094;8.748;2023-11-19T06:33:59;7.30;;;3.85;;
72557;SDS011;60583;50.094;8.748;2023-11-19T06:36:25;6.20;;;3.55;;
72557;SDS011;60583;50.094;8.748;2023-11-19T06:38:51;7.53;;;4.15;;
72557;SDS011;60583;50.094;8.748;2023-11-19T06:41:17;6.63;;;3.75;;
72557;SDS011;60583;50.094;8.748;2023-11-19T06:43:42;6.63;;;3.70;;
72557;SDS011;60583;50.094;8.748;2023-11-19T06:46:17;5.93;;;3.67;;
72557;SDS011;60583;50.094;8.748;2023-11-19T06:48:43;6.60;;;4.15;;
72557;SDS011;60583;50.094;8.748;2023-11-19T06:51:09;7.10;;;3.97;;
72557;SDS011;60583;50.094;8.748;2023-11-19T06:53:35;7.20;;;4.15;;
72557;SDS011;60583;50.094;8.748;2023-11-19T06:56:01;6.15;;;3.75;;
72557;SDS011;60583;50.094;8.748;2023-11-19T06:58:31;7.03;;;4.07;;
72557;SDS011;60583;50.094;8.748;2023-11-19T07:00:57;6.15;;;3.90;;
72557;SDS011;60583;50.094;8.748;2023-11-19T07:03:22;6.93;;;3.85;;
72557;SDS011;60583;50.094;8.748;2023-11-19T07:05:48;6.03;;;3.78;;
72557;SDS011;60583;50.094;8.748;2023-11-19T07:08:13;7.30;;;3.83;;
72557;SDS011;60583;50.094;8.748;2023-11-19T07:10:39;6.35;;;3.33;;
72557;SDS011;60583;50.094;8.748;2023-11-19T07:13:04;5.10;;;3.10;;
72557;SDS011;60583;50.094;8.748;2023-11-19T07:15:31;5.43;;;3.22;;
72557;SDS011;60583;50.094;8.748;2023-11-19T07:17:57;5.25;;;3.35;;
72557;SDS011;60583;50.094;8.748;2023-11-19T07:20:24;6.15;;;3.20;;
72557;SDS011;60583;50.094;8.748;2023-11-19T07:22:51;6.43;;;3.50;;
72557;SDS011;60583;50.094;8.748;2023-11-19T07:25:17;5.18;;;3.03;;
72557;SDS011;60583;50.094;8.748;2023-11-19T07:27:43;5.97;;;3.33;;
72557;SDS011;60583;50.094;8.748;2023-11-19T07:30:08;5.57;;;3.20;;
72557;SDS011;60583;50.094;8.748;2023-11-19T07:32:34;5.10;;;3.20;;
72557;SDS011;60583;50.094;8.748;2023-11-19T07:34:59;6.50;;;3.20;;
72557;SDS011;60583;50.094;8.748;2023-11-19T07:37:25;5.35;;;3.05;;
72557;SDS011;60583;50.094;8.748;2023-11-19T07:39:50;5.53;;;3.40;;
72557;SDS011;60583;50.094;8.748;2023-11-19T07:42:16;5.43;;;3.30;;
72557;SDS011;60583;50.094;8.748;2023-11-19T07:44:42;7.75;;;3.45;;
72557;SDS011;60583;50.094;8.748;2023-11-19T07:47:08;5.63;;;3.47;;
72557;SDS011;60583;50.094;8.748;2023-11-19T07:49:34;5.38;;;3.20;;
72557;SDS011;60583;50.094;8.748;2023-11-19T07:51:59;6.93;;;3.45;;
72557;SDS011;60583;50.094;8.748;2023-11-19T07:54:25;5.55;;;3.25;;
72557;SDS011;60583;50.094;8.748;2023-11-19T07:56:50;5.65;;;3.03;;
72557;SDS011;60583;50.094;8.748;2023-11-19T07:59:16;5.72;;;3.40;;
72557;SDS011;60583;50.094;8.748;2023-11-19T08:01:41;6.20;;;3.50;;
72557;SDS011;60583;50.094;8.748;2023-11-19T08:04:07;5.97;;;3.88;;
72557;SDS011;60583;50.094;8.748;2023-11-19T08:06:32;5.85;;;3.63;;
72557;SDS011;60583;50.094;8.748;2023-11-19T08:08:58;6.28;;;3.47;;
72557;SDS011;60583;50.094;8.748;2023-11-19T08:11:24;6.60;;;4.18;;
72557;SDS011;60583;50.094;8.748;2023-11-19T08:13:50;7.28;;;4.00;;
72557;SDS011;60583;50.094;8.748;2023-11-19T08:16:15;6.47;;;4.07;;
72557;SDS011;60583;50.094;8.748;2023-11-19T08:18:41;7.47;;;4.03;;
72557;SDS011;60583;50.094;8.748;2023-11-19T08:21:08;6.97;;;3.80;;
72557;SDS011;60583;50.094;8.748;2023-11-19T08:23:34;5.60;;;3.67;;
72557;SDS011;60583;50.094;8.748;2023-11-19T08:26:01;5.40;;;3.22;;
72557;SDS011;60583;50.094;8.748;2023-11-19T08:28:26;5.50;;;3.15;;
72557;SDS011;60583;50.094;8.748;2023-11-19T08:30:52;4.70;;;3.05;;
72557;SDS011;60583;50.094;8.748;2023-11-19T08:33:21;7.38;;;3.67;;
72557;SDS011;60583;50.094;8.748;2023-11-19T08:35:47;5.82;;;3.35;;
72557;SDS011;60583;50.094;8.748;2023-11-19T08:38:13;4.95;;;3.00;;
72557;SDS011;60583;50.094;8.748;2023-11-19T08:40:38;6.60;;;3.20;;
72557;SDS011;60583;50.094;8.748;2023-11-19T08:43:04;7.13;;;3.40;;
72557;SDS011;60583;50.094;8.748;2023-11-19T08:45:29;5.85;;;3.10;;
72557;SDS011;60583;50.094;8.748;2023-11-19T08:47:56;5.47;;;3.20;;
72557;SDS011;60583;50.094;8.748;2023-11-19T08:50:22;5.60;;;2.90;;
72557;SDS011;60583;50.094;8.748;2023-11-19T08:52:47;5.50;;;3.00;;
72557;SDS011;60583;50.094;8.748;2023-11-19T08:55:13;7.72;;;3.55;;
72557;SDS011;60583;50.094;8.748;2023-11-19T08:57:38;6.65;;;2.95;;
72557;SDS011;60583;50.094;8.748;2023-11-19T09:00:04;6.32;;;3.00;;
72557;SDS011;60583;50.094;8.748;2023-11-19T09:02:33;5.07;;;2.78;;
72557;SDS011;60583;50.094;8.748;2023-11-19T09:05:00;7.88;;;3.17;;
72557;SDS011;60583;50.094;8.748;2023-11-19T09:07:26;6.28;;;2.92;;
72557;SDS011;60583;50.094;8.748;2023-11-19T09:09:52;6.07;;;3.05;;
72557;SDS011;60583;50.094;8.748;2023-11-19T09:12:18;6.20;;;3.10;;
72557;SDS011;60583;50.094;8.748;2023-11-19T09:15:05;5.65;;;3.22;;
72557;SDS011;60583;50.094;8.748;2023-11-19T09:17:31;7.00;;;4.22;;
72557;SDS011;60583;50.094;8.748;2023-11-19T09:19:57;7.40;;;3.70;;
72557;SDS011;60583;50.094;8.748;2023-11-19T09:22:22;6.57;;;3.05;;
72557;SDS011;60583;50.094;8.748;2023-11-19T09:24:47;5.38;;;2.58;;
72557;SDS011;60583;50.094;8.748;2023-11-19T09:27:13;4.60;;;2.67;;
72557;SDS011;60583;50.094;8.748;2023-11-19T09:29:38;4.80;;;2.28;;
72557;SDS011;60583;50.094;8.748;2023-11-19T09:32:04;5.85;;;2.33;;
72557;SDS011;60583;50.094;8.748;2023-11-19T09:34:30;5.25;;;2.65;;
72557;SDS011;60583;50.094;8.748;2023-11-19T09:36:55;4.85;;;2.03;;
72557;SDS011;60583;50.094;8.748;2023-11-19T09:39:20;6.60;;;2.33;;
72557;SDS011;60583;50.094;8.748;2023-11-19T09:41:46;4.05;;;1.38;;
72557;SDS011;60583;50.094;8.748;2023-11-19T09:44:12;2.78;;;1.38;;
72557;SDS011;60583;50.094;8.748;2023-11-19T09:46:40;4.65;;;1.42;;
72557;SDS011;60583;50.094;8.748;2023-11-19T09:49:07;3.63;;;1.40;;
72557;SDS011;60583;50.094;8.748;2023-11-19T09:51:35;5.70;;;1.38;;
72557;SDS011;60583;50.094;8.748;2023-11-19T09:54:01;3.05;;;1.30;;
72557;SDS011;60583;50.094;8.748;2023-11-19T09:56:28;3.33;;;1.33;;
72557;SDS011;60583;50.094;8.748;2023-11-19T09:58:55;3.65;;;1.40;;
72557;SDS011;60583;50.094;8.748;2023-11-19T10:01:20;3.75;;;1.40;;
72557;SDS011;60583;50.094;8.748;2023-11-19T10:03:46;3.38;;;1.30;;
72557;SDS011;60583;50.094;8.748;2023-11-19T10:06:12;3.35;;;1.15;;
72557;SDS011;60583;50.094;8.748;2023-11-19T10:08:40;3.00;;;1.10;;
72557;SDS011;60583;50.094;8.748;2023-11-19T10:11:07;2.70;;;1.15;;
72557;SDS011;60583;50.094;8.748;2023-11-19T10:13:36;4.45;;;1.40;;
72557;SDS011;60583;50.094;8.748;2023-11-19T10:16:08;3.63;;;1.58;;
72557;SDS011;60583;50.094;8.748;2023-11-19T10:18:36;3.25;;;1.50;;
72557;SDS011;60583;50.094;8.748;2023-11-19T10:21:03;5.40;;;2.42;;
72557;SDS011;60583;50.094;8.748;2023-11-19T10:23:31;4.72;;;1.30;;
72557;SDS011;60583;50.094;8.748;2023-11-19T10:26:02;4.93;;;1.33;;
72557;SDS011;60583;50.094;8.748;2023-11-19T10:28:38;5.68;;;1.30;;
72557;SDS011;60583;50.094;8.748;2023-11-19T10:31:05;4.18;;;1.40;;
72557;SDS011;60583;50.094;8.748;2023-11-19T10:33:31;4.70;;;1.25;;
72557;SDS011;60583;50.094;8.748;2023-11-19T10:35:57;4.05;;;1.48;;
72557;SDS011;60583;50.094;8.748;2023-11-19T10:38:23;4.55;;;1.30;;
72557;SDS011;60583;50.094;8.748;2023-11-19T10:40:50;7.40;;;2.50;;
72557;SDS011;60583;50.094;8.748;2023-11-19T10:43:17;5.07;;;2.30;;
72557;SDS011;60583;50.094;8.748;2023-11-19T10:45:42;5.50;;;1.67;;
72557;SDS011;60583;50.094;8.748;2023-11-19T10:48:08;6.50;;;1.65;;
72557;SDS011;60583;50.094;8.748;2023-11-19T10:50:38;7.05;;;1.90;;
72557;SDS011;60583;50.094;8.748;2023-11-19T10:53:08;5.22;;;1.50;;
72557;SDS011;60583;50.094;8.748;2023-11-19T10:55:36;4.30;;;1.27;;
72557;SDS011;60583;50.094;8.748;2023-11-19T11:00:39;5.38;;;1.50;;
72557;SDS011;60583;50.094;8.748;2023-11-19T11:03:19;5.95;;;1.63;;
72557;SDS011;60583;50.094;8.748;2023-11-19T11:05:49;4.80;;;2.00;;
72557;SDS011;60583;50.094;8.748;2023-11-19T11:08:16;6.97;;;1.52;;
72557;SDS011;60583;50.094;8.748;2023-11-19T11:10:43;4.60;;;1.20;;
72557;SDS011;60583;50.094;8.748;2023-11-19T11:13:10;6.07;;;1.60;;
72557;SDS011;60583;50.094;8.748;2023-11-19T11:15:38;6.50;;;2.17;;
72557;SDS011;60583;50.094;8.748;2023-11-19T11:18:04;6.88;;;1.73;;
72557;SDS011;60583;50.094;8.748;2023-11-19T11:20:33;5.22;;;1.67;;
72557;SDS011;60583;50.094;8.748;2023-11-19T11:26:09;4.53;;;1.48;;
72557;SDS011;60583;50.094;8.748;2023-11-19T11:29:01;5.68;;;1.58;;
72557;SDS011;60583;50.094;8.748;2023-11-19T11:37:17;5.28;;;1.70;;
72557;SDS011;60583;50.094;8.748;2023-11-19T11:39:46;6.20;;;1.50;;
72557;SDS011;60583;50.094;8.748;2023-11-19T11:50:07;6.68;;;1.98;;
72557;SDS011;60583;50.094;8.748;2023-11-19T11:52:48;8.88;;;1.58;;
72557;SDS011;60583;50.094;8.748;2023-11-19T11:57:57;7.13;;;1.30;;
72557;SDS011;60583;50.094;8.748;2023-11-19T12:02:57;6.88;;;2.00;;
72557;SDS011;60583;50.094;8.748;2023-11-19T12:05:25;6.25;;;1.52;;
72557;SDS011;60583;50.094;8.748;2023-11-19T12:07:54;9.27;;;2.08;;
72557;SDS011;60583;50.094;8.748;2023-11-19T12:10:32;6.05;;;1.65;;
72557;SDS011;60583;50.094;8.748;2023-11-19T12:13:03;6.35;;;1.75;;
72557;SDS011;60583;50.094;8.748;2023-11-19T12:15:32;9.15;;;2.10;;
72557;SDS011;60583;50.094;8.748;2023-11-19T12:17:57;9.75;;;1.60;;
72557;SDS011;60583;50.094;8.748;2023-11-19T12:20:23;5.97;;;1.27;;
72557;SDS011;60583;50.094;8.748;2023-11-19T12:22:50;7.47;;;1.40;;
72557;SDS011;60583;50.094;8.748;2023-11-19T12:25:16;6.70;;;1.55;;
72557;SDS011;60583;50.094;8.748;2023-11-19T12:30:11;5.65;;;1.60;;
72557;SDS011;60583;50.094;8.748;2023-11-19T12:32:44;6.55;;;1.73;;
72557;SDS011;60583;50.094;8.748;2023-11-19T12:35:11;9.07;;;1.80;;
72557;SDS011;60583;50.094;8.748;2023-11-19T12:37:41;6.60;;;1.70;;
72557;SDS011;60583;50.094;8.748;2023-11-19T12:40:11;6.25;;;1.48;;
72557;SDS011;60583;50.094;8.748;2023-11-19T12:42:38;5.95;;;1.38;;
72557;SDS011;60583;50.094;8.748;2023-11-19T12:45:04;7.85;;;3.03;;
72557;SDS011;60583;50.094;8.748;2023-11-19T12:47:30;7.60;;;1.75;;
72557;SDS011;60583;50.094;8.748;2023-11-19T12:49:58;6.65;;;1.70;;
72557;SDS011;60583;50.094;8.748;2023-11-19T12:52:23;10.00;;;2.70;;
72557;SDS011;60583;50.094;8.748;2023-11-19T12:54:49;6.05;;;1.88;;
72557;SDS011;60583;50.094;8.748;2023-11-19T12:57:15;6.50;;;1.60;;
72557;SDS011;60583;50.094;8.748;2023-11-19T12:59:41;8.65;;;1.92;;
72557;SDS011;60583;50.094;8.748;2023-11-19T13:02:06;5.32;;;1.95;;
72557;SDS011;60583;50.094;8.748;2023-11-19T13:04:32;6.80;;;1.50;;
72557;SDS011;60583;50.094;8.748;2023-11-19T13:06:58;6.78;;;1.48;;
72557;SDS011;60583;50.094;8.748;2023-11-19T13:09:24;6.00;;;1.65;;
72557;SDS011;60583;50.094;8.748;2023-11-19T13:11:51;5.13;;;1.70;;
72557;SDS011;60583;50.094;8.748;2023-11-19T13:14:17;8.05;;;1.58;;
72557;SDS011;60583;50.094;8.748;2023-11-19T13:16:44;5.60;;;1.45;;
72557;SDS011;60583;50.094;8.748;2023-11-19T13:19:13;6.68;;;1.65;;
72557;SDS011;60583;50.094;8.748;2023-11-19T13:21:39;7.88;;;2.55;;
72557;SDS011;60583;50.094;8.748;2023-11-19T13:24:07;6.55;;;1.20;;
72557;SDS011;60583;50.094;8.748;2023-11-19T13:26:33;7.72;;;1.58;;
72557;SDS011;60583;50.094;8.748;2023-11-19T13:29:00;5.20;;;1.48;;
72557;SDS011;60583;50.094;8.748;2023-11-19T13:31:25;6.15;;;1.70;;
72557;SDS011;60583;50.094;8.748;2023-11-19T13:33:51;6.78;;;1.80;;
72557;SDS011;60583;50.094;8.748;2023-11-19T13:36:16;5.70;;;1.20;;
72557;SDS011;60583;50.094;8.748;2023-11-19T13:38:42;6.80;;;1.50;;
72557;SDS011;60583;50.094;8.748;2023-11-19T13:41:09;8.07;;;1.67;;
72557;SDS011;60583;50.094;8.748;2023-11-19T13:43:36;4.97;;;1.30;;
72557;SDS011;60583;50.094;8.748;2023-11-19T13:46:01;9.38;;;1.45;;
72557;SDS011;60583;50.094;8.748;2023-11-19T13:48:27;3.97;;;1.23;;
72557;SDS011;60583;50.094;8.748;2023-11-19T13:50:54;8.32;;;1.23;;
72557;SDS011;60583;50.094;8.748;2023-11-19T13:53:20;4.47;;;1.50;;
72557;SDS011;60583;50.094;8.748;2023-11-19T13:55:46;5.43;;;1.20;;
72557;SDS011;60583;50.094;8.748;2023-11-19T13:58:12;8.32;;;1.38;;
72557;SDS011;60583;50.094;8.748;2023-11-19T14:00:38;9.75;;;2.35;;
72557;SDS011;60583;50.094;8.748;2023-11-19T14:03:03;8.15;;;1.92;;
72557;SDS011;60583;50.094;8.748;2023-11-19T14:05:29;6.15;;;2.03;;
72557;SDS011;60583;50.094;8.748;2023-11-19T14:07:55;6.82;;;1.50;;
72557;SDS011;60583;50.094;8.748;2023-11-19T14:10:22;5.60;;;1.35;;
72557;SDS011;60583;50.094;8.748;2023-11-19T14:12:49;5.15;;;1.20;;
72557;SDS011;60583;50.094;8.748;2023-11-19T14:15:17;7.70;;;1.50;;
72557;SDS011;60583;50.094;8.748;2023-11-19T14:17:43;4.60;;;0.88;;
72557;SDS011;60583;50.094;8.748;2023-11-19T14:20:09;4.97;;;1.05;;
72557;SDS011;60583;50.094;8.748;2023-11-19T14:22:47;7.35;;;1.42;;
72557;SDS011;60583;50.094;8.748;2023-11-19T14:25:14;5.38;;;1.17;;
72557;SDS011;60583;50.094;8.748;2023-11-19T14:27:40;5.75;;;1.23;;
72557;SDS011;60583;50.094;8.748;2023-11-19T14:30:09;7.22;;;1.15;;
72557;SDS011;60583;50.094;8.748;2023-11-19T14:32:38;6.10;;;1.17;;
72557;SDS011;60583;50.094;8.748;2023-11-19T14:35:05;5.35;;;1.20;;
72557;SDS011;60583;50.094;8.748;2023-11-19T14:37:31;5.43;;;1.00;;
72557;SDS011;60583;50.094;8.748;2023-11-19T14:39:57;5.35;;;1.23;;
72557;SDS011;60583;50.094;8.748;2023-11-19T14:42:25;6.75;;;1.10;;
72557;SDS011;60583;50.094;8.748;2023-11-19T14:44:51;6.80;;;1.52;;
72557;SDS011;60583;50.094;8.748;2023-11-19T14:47:20;6.18;;;1.33;;
72557;SDS011;60583;50.094;8.748;2023-11-19T14:49:46;5.10;;;1.35;;
72557;SDS011;60583;50.094;8.748;2023-11-19T14:52:12;6.05;;;0.90;;
72557;SDS011;60583;50.094;8.748;2023-11-19T14:54:38;9.07;;;1.48;;
72557;SDS011;60583;50.094;8.748;2023-11-19T14:57:04;6.65;;;1.20;;
72557;SDS011;60583;50.094;8.748;2023-11-19T14:59:30;7.00;;;1.27;;
72557;SDS011;60583;50.094;8.748;2023-11-19T15:01:55;5.97;;;1.40;;
72557;SDS011;60583;50.094;8.748;2023-11-19T15:04:21;4.65;;;1.10;;
72557;SDS011;60583;50.094;8.748;2023-11-19T15:06:46;6.90;;;1.20;;
72557;SDS011;60583;50.094;8.748;2023-11-19T15:09:11;6.57;;;1.23;;
72557;SDS011;60583;50.094;8.748;2023-11-19T15:11:42;7.50;;;1.30;;
72557;SDS011;60583;50.094;8.748;2023-11-19T15:14:14;5.88;;;1.17;;
72557;SDS011;60583;50.094;8.748;2023-11-19T15:16:42;5.13;;;1.17;;
72557;SDS011;60583;50.094;8.748;2023-11-19T15:19:07;7.68;;;1.30;;
72557;SDS011;60583;50.094;8.748;2023-11-19T15:21:33;5.15;;;1.27;;